createdAt,value
2018-07-10T00:00:38.930Z,24.9
2018-07-10T00:01:28.328Z,24.9
2018-07-10T00:02:18.928Z,24.9
2018-07-10T00:03:08.992Z,24.9
2018-07-10T00:03:58.819Z,24.9
2018-07-10T00:04:49.137Z,24.9
2018-07-10T00:05:39.471Z,24.9
2018-07-10T00:06:29.662Z,24.9
2018-07-10T00:07:19.599Z,24.9
2018-07-10T00:08:09.746Z,24.9
2018-07-10T00:08:59.486Z,24.9
2018-07-10T00:09:48.963Z,24.9
2018-07-10T00:10:39.588Z,24.9
2018-07-10T00:11:29.973Z,24.9
2018-07-10T00:12:19.728Z,24.9
2018-07-10T00:13:09.778Z,24.9
2018-07-10T00:14:00.128Z,24.9
2018-07-10T00:14:49.947Z,24.9
2018-07-10T00:15:40.271Z,24.9
2018-07-10T00:16:30.127Z,24.9
2018-07-10T00:17:19.846Z,24.9
2018-07-10T00:18:09.867Z,24.9
2018-07-10T00:19:00.198Z,24.9
2018-07-10T00:19:50.317Z,24.9
2018-07-10T00:20:40.074Z,24.9
2018-07-10T00:21:30.117Z,24.9
2018-07-10T00:22:20.472Z,24.9
2018-07-10T00:23:10.513Z,24.9
2018-07-10T00:24:00.866Z,24.9
2018-07-10T00:24:50.907Z,24.9
2018-07-10T00:25:40.703Z,24.9
2018-07-10T00:26:30.539Z,24.9
2018-07-10T00:27:20.904Z,24.8
2018-07-10T00:28:11.157Z,24.8
2018-07-10T00:29:00.407Z,24.9
2018-07-10T00:29:50.788Z,24.9
2018-07-10T00:30:41.359Z,24.9
2018-07-10T00:31:31.484Z,24.8
2018-07-10T00:32:21.220Z,24.9
2018-07-10T00:33:11.598Z,24.9
2018-07-10T00:34:01.055Z,24.8
2018-07-10T00:34:51.390Z,24.9
2018-07-10T00:35:41.483Z,24.9
2018-07-10T00:36:31.278Z,24.8
2018-07-10T00:37:21.616Z,24.8
2018-07-10T00:38:11.977Z,24.8
2018-07-10T00:39:01.493Z,24.9
2018-07-10T00:39:51.515Z,24.8
2018-07-10T00:40:41.850Z,24.8
2018-07-10T00:41:32.200Z,24.8
2018-07-10T00:42:22.291Z,24.8
2018-07-10T00:43:12.048Z,24.8
2018-07-10T00:44:01.821Z,24.8
2018-07-10T00:44:52.158Z,24.8
2018-07-10T00:45:41.968Z,24.8
2018-07-10T00:46:31.745Z,24.8
2018-07-10T00:47:22.429Z,24.8
2018-07-10T00:48:12.144Z,24.8
2018-07-10T00:49:02.201Z,24.8
2018-07-10T00:49:52.857Z,24.8
2018-07-10T00:50:42.433Z,24.8
2018-07-10T00:51:32.947Z,24.8
2018-07-10T00:52:22.762Z,24.8
2018-07-10T00:53:13.085Z,24.8
2018-07-10T00:54:02.567Z,24.8
2018-07-10T00:54:52.624Z,24.8
2018-07-10T00:55:43.012Z,24.8
2018-07-10T00:56:32.779Z,24.8
2018-07-10T00:57:23.094Z,24.8
2018-07-10T00:58:13.174Z,24.8
2018-07-10T00:59:02.985Z,24.8
2018-07-10T00:59:53.560Z,24.8
2018-07-10T01:00:43.632Z,24.8
2018-07-10T01:01:33.459Z,24.8
2018-07-10T01:02:23.523Z,24.8
2018-07-10T01:03:13.815Z,24.8
2018-07-10T01:04:03.898Z,24.8
2018-07-10T01:04:53.954Z,24.8
2018-07-10T01:05:43.782Z,24.8
2018-07-10T01:06:34.066Z,24.8
2018-07-10T01:07:23.852Z,24.8
2018-07-10T01:08:13.917Z,24.8
2018-07-10T01:09:03.997Z,24.8
2018-07-10T01:09:54.348Z,24.8
2018-07-10T01:10:44.406Z,24.8
2018-07-10T01:11:34.224Z,24.8
2018-07-10T01:12:24.291Z,24.8
2018-07-10T01:13:14.603Z,24.8
2018-07-10T01:14:04.406Z,24.8
2018-07-10T01:14:54.748Z,24.8
2018-07-10T01:15:44.512Z,24.8
2018-07-10T01:16:34.596Z,24.8
2018-07-10T01:17:24.629Z,24.8
2018-07-10T01:18:14.439Z,24.8
2018-07-10T01:19:04.489Z,24.8
2018-07-10T01:19:54.252Z,24.8
2018-07-10T01:20:44.916Z,24.8
2018-07-10T01:21:34.969Z,24.7
2018-07-10T01:22:25.339Z,24.8
2018-07-10T01:23:15.346Z,24.7
2018-07-10T01:24:05.438Z,24.7
2018-07-10T01:24:54.951Z,24.7
2018-07-10T01:25:45.260Z,24.7
2018-07-10T01:26:35.597Z,24.7
2018-07-10T01:27:25.681Z,24.7
2018-07-10T01:28:15.460Z,24.7
2018-07-10T01:29:05.480Z,24.7
2018-07-10T01:29:55.562Z,24.7
2018-07-10T01:30:45.906Z,24.7
2018-07-10T01:31:35.957Z,24.7
2018-07-10T01:32:25.524Z,24.7
2018-07-10T01:33:16.091Z,24.7
2018-07-10T01:34:05.879Z,24.7
2018-07-10T01:34:56.281Z,24.7
2018-07-10T01:35:46.265Z,24.7
2018-07-10T01:36:35.774Z,24.7
2018-07-10T01:37:26.137Z,24.7
2018-07-10T01:38:16.469Z,24.7
2018-07-10T01:39:06.006Z,24.7
2018-07-10T01:39:56.576Z,24.7
2018-07-10T01:40:46.389Z,24.7
2018-07-10T01:41:36.440Z,24.7
2018-07-10T01:42:25.933Z,24.7
2018-07-10T01:43:16.844Z,24.7
2018-07-10T01:44:06.601Z,24.7
2018-07-10T01:44:56.669Z,24.7
2018-07-10T01:45:46.780Z,24.7
2018-07-10T01:46:36.878Z,24.7
2018-07-10T01:47:26.898Z,24.7
2018-07-10T01:48:16.703Z,24.7
2018-07-10T01:49:07.303Z,24.6
2018-07-10T01:49:57.363Z,24.6
2018-07-10T01:50:47.453Z,24.6
2018-07-10T01:51:37.491Z,24.6
2018-07-10T01:52:27.585Z,24.6
2018-07-10T01:53:17.068Z,24.7
2018-07-10T01:54:07.689Z,24.6
2018-07-10T01:54:56.917Z,24.6
2018-07-10T01:55:47.584Z,24.6
2018-07-10T01:56:38.552Z,24.6
2018-07-10T01:57:27.953Z,24.6
2018-07-10T01:58:17.768Z,24.6
2018-07-10T01:59:07.776Z,24.6
2018-07-10T01:59:58.159Z,24.6
2018-07-10T02:00:48.208Z,24.6
2018-07-10T02:01:38.260Z,24.6
2018-07-10T02:02:28.043Z,24.6
2018-07-10T02:03:18.394Z,24.6
2018-07-10T02:04:07.625Z,24.6
2018-07-10T02:04:57.944Z,24.6
2018-07-10T02:05:47.995Z,24.6
2018-07-10T02:06:38.726Z,24.6
2018-07-10T02:07:28.691Z,24.6
2018-07-10T02:08:18.436Z,24.6
2018-07-10T02:09:08.255Z,24.6
2018-07-10T02:09:58.597Z,24.6
2018-07-10T02:10:48.940Z,24.6
2018-07-10T02:11:38.987Z,24.6
2018-07-10T02:12:28.526Z,24.6
2018-07-10T02:13:18.838Z,24.6
2018-07-10T02:14:09.393Z,24.6
2018-07-10T02:14:58.979Z,24.6
2018-07-10T02:15:49.027Z,24.6
2018-07-10T02:16:39.369Z,24.6
2018-07-10T02:17:29.436Z,24.6
2018-07-10T02:18:19.471Z,24.6
2018-07-10T02:19:09.561Z,24.6
2018-07-10T02:19:59.340Z,24.6
2018-07-10T02:20:49.115Z,24.6
2018-07-10T02:21:39.744Z,24.6
2018-07-10T02:22:29.883Z,24.6
2018-07-10T02:23:19.887Z,24.6
2018-07-10T02:24:09.683Z,24.6
2018-07-10T02:25:00.043Z,24.6
2018-07-10T02:25:49.525Z,24.6
2018-07-10T02:26:39.876Z,24.6
2018-07-10T02:27:29.917Z,24.6
2018-07-10T02:28:20.277Z,24.6
2018-07-10T02:29:10.086Z,24.6
2018-07-10T02:30:00.248Z,24.6
2018-07-10T02:30:50.471Z,24.6
2018-07-10T02:31:40.583Z,24.6
2018-07-10T02:32:30.029Z,24.6
2018-07-10T02:33:19.823Z,24.6
2018-07-10T02:34:10.749Z,24.6
2018-07-10T02:35:00.773Z,24.6
2018-07-10T02:35:50.882Z,24.6
2018-07-10T02:36:40.896Z,24.6
2018-07-10T02:37:30.693Z,24.6
2018-07-10T02:38:20.220Z,24.6
2018-07-10T02:39:10.259Z,24.6
2018-07-10T02:40:00.898Z,24.6
2018-07-10T02:40:50.635Z,24.6
2018-07-10T02:41:40.975Z,24.6
2018-07-10T02:42:30.759Z,24.6
2018-07-10T02:43:21.103Z,24.6
2018-07-10T02:44:11.162Z,24.6
2018-07-10T02:45:00.937Z,24.6
2018-07-10T02:45:51.332Z,24.6
2018-07-10T02:46:41.348Z,24.6
2018-07-10T02:47:31.405Z,24.6
2018-07-10T02:48:21.499Z,24.6
2018-07-10T02:49:11.272Z,24.6
2018-07-10T02:50:01.335Z,24.5
2018-07-10T02:50:51.648Z,24.6
2018-07-10T02:51:42.012Z,24.6
2018-07-10T02:52:32.071Z,24.5
2018-07-10T02:53:22.142Z,24.5
2018-07-10T02:54:12.247Z,24.6
2018-07-10T02:55:02.012Z,24.5
2018-07-10T02:55:52.391Z,24.5
2018-07-10T02:56:42.389Z,24.6
2018-07-10T02:57:32.503Z,24.6
2018-07-10T02:58:22.545Z,24.5
2018-07-10T02:59:12.339Z,24.5
2018-07-10T03:00:02.658Z,24.5
2018-07-10T03:00:52.757Z,24.5
2018-07-10T03:01:42.229Z,24.5
2018-07-10T03:02:32.866Z,24.6
2018-07-10T03:03:22.951Z,24.5
2018-07-10T03:04:12.441Z,24.5
2018-07-10T03:05:03.131Z,24.5
2018-07-10T03:05:52.646Z,24.5
2018-07-10T03:06:42.871Z,24.5
2018-07-10T03:07:33.260Z,24.5
2018-07-10T03:08:23.032Z,24.5
2018-07-10T03:09:13.078Z,24.5
2018-07-10T03:10:02.882Z,24.5
2018-07-10T03:10:53.198Z,24.5
2018-07-10T03:11:43.379Z,24.5
2018-07-10T03:12:33.059Z,24.5
2018-07-10T03:13:23.394Z,24.5
2018-07-10T03:14:13.749Z,24.5
2018-07-10T03:15:03.537Z,24.5
2018-07-10T03:15:53.555Z,24.5
2018-07-10T03:16:43.352Z,24.5
2018-07-10T03:17:34.015Z,24.5
2018-07-10T03:18:23.733Z,24.5
2018-07-10T03:19:13.829Z,24.5
2018-07-10T03:20:03.307Z,24.5
2018-07-10T03:20:54.214Z,24.6
2018-07-10T03:21:44.028Z,24.6
2018-07-10T03:22:33.781Z,24.6
2018-07-10T03:23:24.417Z,24.6
2018-07-10T03:24:14.182Z,24.6
2018-07-10T03:25:04.546Z,24.7
2018-07-10T03:25:54.763Z,24.8
2018-07-10T03:26:44.649Z,24.7
2018-07-10T03:27:34.158Z,24.7
2018-07-10T03:28:24.246Z,24.7
2018-07-10T03:29:14.556Z,24.7
2018-07-10T03:30:04.667Z,24.7
2018-07-10T03:30:54.753Z,24.6
2018-07-10T03:31:44.209Z,24.7
2018-07-10T03:32:34.813Z,24.6
2018-07-10T03:33:25.151Z,24.6
2018-07-10T03:34:14.971Z,24.7
2018-07-10T03:35:05.326Z,24.6
2018-07-10T03:35:54.826Z,24.6
2018-07-10T03:36:45.158Z,24.7
2018-07-10T03:37:35.235Z,24.6
2018-07-10T03:38:25.336Z,24.6
2018-07-10T03:39:15.638Z,24.6
2018-07-10T03:40:05.128Z,24.6
2018-07-10T03:40:55.467Z,24.6
2018-07-10T03:41:45.546Z,24.6
2018-07-10T03:42:35.339Z,24.6
2018-07-10T03:43:25.645Z,24.6
2018-07-10T03:44:15.714Z,24.6
2018-07-10T03:45:06.120Z,24.6
2018-07-10T03:45:55.000Z,24.6
2018-07-10T03:46:45.946Z,24.6
2018-07-10T03:47:35.704Z,24.6
2018-07-10T03:48:26.306Z,24.6
2018-07-10T03:49:16.082Z,24.6
2018-07-10T03:50:06.440Z,24.6
2018-07-10T03:50:55.934Z,24.6
2018-07-10T03:51:46.541Z,24.6
2018-07-10T03:52:36.592Z,24.6
2018-07-10T03:53:26.394Z,24.6
2018-07-10T03:54:16.140Z,24.6
2018-07-10T03:55:05.939Z,24.6
2018-07-10T03:55:56.835Z,24.6
2018-07-10T03:56:46.883Z,24.6
2018-07-10T03:57:36.967Z,24.6
2018-07-10T03:58:27.003Z,24.6
2018-07-10T03:59:16.819Z,24.6
2018-07-10T04:00:07.193Z,24.6
2018-07-10T04:00:56.973Z,24.6
2018-07-10T04:01:47.644Z,24.6
2018-07-10T04:02:37.337Z,24.6
2018-07-10T04:03:27.190Z,24.6
2018-07-10T04:04:17.460Z,24.6
2018-07-10T04:05:07.526Z,24.6
2018-07-10T04:05:57.610Z,24.6
2018-07-10T04:06:47.648Z,24.6
2018-07-10T04:07:37.464Z,24.6
2018-07-10T04:08:27.781Z,24.6
2018-07-10T04:09:17.594Z,24.6
2018-07-10T04:10:07.973Z,24.6
2018-07-10T04:10:57.461Z,24.6
2018-07-10T04:11:48.041Z,24.6
2018-07-10T04:12:37.571Z,24.6
2018-07-10T04:13:28.197Z,24.6
2018-07-10T04:14:17.978Z,24.6
2018-07-10T04:15:08.346Z,24.6
2018-07-10T04:15:58.360Z,24.6
2018-07-10T04:16:48.461Z,24.6
2018-07-10T04:17:38.503Z,24.6
2018-07-10T04:18:28.340Z,24.6
2018-07-10T04:19:18.098Z,24.6
2018-07-10T04:20:08.723Z,24.6
2018-07-10T04:20:58.491Z,24.6
2018-07-10T04:21:48.823Z,24.6
2018-07-10T04:22:38.306Z,24.6
2018-07-10T04:23:28.678Z,24.6
2018-07-10T04:24:19.020Z,24.6
2018-07-10T04:25:09.070Z,24.6
2018-07-10T04:25:59.165Z,24.6
2018-07-10T04:26:49.190Z,24.6
2018-07-10T04:27:38.981Z,24.6
2018-07-10T04:28:28.754Z,24.6
2018-07-10T04:29:19.101Z,24.6
2018-07-10T04:30:08.895Z,24.6
2018-07-10T04:30:59.474Z,24.6
2018-07-10T04:31:48.703Z,24.6
2018-07-10T04:32:39.051Z,24.6
2018-07-10T04:33:29.102Z,24.6
2018-07-10T04:34:19.757Z,24.6
2018-07-10T04:35:09.248Z,24.6
2018-07-10T04:35:59.855Z,24.6
2018-07-10T04:36:49.917Z,24.6
2018-07-10T04:37:39.982Z,24.6
2018-07-10T04:38:30.052Z,24.6
2018-07-10T04:39:20.118Z,24.6
2018-07-10T04:40:10.172Z,24.6
2018-07-10T04:40:59.959Z,24.6
2018-07-10T04:41:49.462Z,24.6
2018-07-10T04:42:39.852Z,24.7
2018-07-10T04:43:30.243Z,24.6
2018-07-10T04:44:20.539Z,24.6
2018-07-10T04:45:10.571Z,24.6
2018-07-10T04:46:00.641Z,24.6
2018-07-10T04:46:50.761Z,24.6
2018-07-10T04:47:40.751Z,24.6
2018-07-10T04:48:30.881Z,24.6
2018-07-10T04:49:20.899Z,24.6
2018-07-10T04:50:10.967Z,24.6
2018-07-10T04:51:00.749Z,24.6
2018-07-10T04:51:51.089Z,24.6
2018-07-10T04:52:41.128Z,24.6
2018-07-10T04:53:31.201Z,24.6
2018-07-10T04:54:21.234Z,24.6
2018-07-10T04:55:11.311Z,24.6
2018-07-10T04:56:00.845Z,24.6
2018-07-10T04:56:51.409Z,24.6
2018-07-10T04:57:41.230Z,24.6
2018-07-10T04:58:30.805Z,24.6
2018-07-10T04:59:21.352Z,24.6
2018-07-10T05:00:11.680Z,24.6
2018-07-10T05:01:01.270Z,24.6
2018-07-10T05:01:51.801Z,24.6
2018-07-10T05:02:41.308Z,24.6
2018-07-10T05:03:31.991Z,24.6
2018-07-10T05:04:21.468Z,24.6
2018-07-10T05:05:12.071Z,24.6
2018-07-10T05:06:02.081Z,24.6
2018-07-10T05:06:52.233Z,24.6
2018-07-10T05:07:41.986Z,24.6
2018-07-10T05:08:31.855Z,24.6
2018-07-10T05:09:22.387Z,24.6
2018-07-10T05:10:12.472Z,24.6
2018-07-10T05:11:01.986Z,24.6
2018-07-10T05:11:52.576Z,24.6
2018-07-10T05:12:42.379Z,24.6
2018-07-10T05:13:32.220Z,24.6
2018-07-10T05:14:22.762Z,24.6
2018-07-10T05:15:12.540Z,24.5
2018-07-10T05:16:02.661Z,24.5
2018-07-10T05:16:52.967Z,24.5
2018-07-10T05:17:42.486Z,24.5
2018-07-10T05:18:32.329Z,24.5
2018-07-10T05:19:22.859Z,24.5
2018-07-10T05:20:13.244Z,24.5
2018-07-10T05:21:03.008Z,24.5
2018-07-10T05:21:53.039Z,24.5
2018-07-10T05:22:43.388Z,24.5
2018-07-10T05:23:33.149Z,24.5
2018-07-10T05:24:23.503Z,24.5
2018-07-10T05:25:13.003Z,24.5
2018-07-10T05:26:03.079Z,24.5
2018-07-10T05:26:53.706Z,24.5
2018-07-10T05:27:43.729Z,24.4
2018-07-10T05:28:33.803Z,24.5
2018-07-10T05:29:23.895Z,24.4
2018-07-10T05:30:13.680Z,24.4
2018-07-10T05:31:03.724Z,24.4
2018-07-10T05:31:54.106Z,24.4
2018-07-10T05:32:44.232Z,24.4
2018-07-10T05:33:34.164Z,24.4
2018-07-10T05:34:23.740Z,24.5
2018-07-10T05:35:14.320Z,24.4
2018-07-10T05:36:04.101Z,24.4
2018-07-10T05:36:54.419Z,24.4
2018-07-10T05:37:44.544Z,24.4
2018-07-10T05:38:34.606Z,24.4
2018-07-10T05:39:24.644Z,24.4
2018-07-10T05:40:14.740Z,24.4
2018-07-10T05:41:04.845Z,24.4
2018-07-10T05:41:54.861Z,24.4
2018-07-10T05:42:44.892Z,24.4
2018-07-10T05:43:34.957Z,24.4
2018-07-10T05:44:24.759Z,24.4
2018-07-10T05:45:14.527Z,24.4
2018-07-10T05:46:05.141Z,24.4
2018-07-10T05:46:55.218Z,24.4
2018-07-10T05:47:44.998Z,24.4
2018-07-10T05:48:35.324Z,24.4
2018-07-10T05:49:25.215Z,24.4
2018-07-10T05:50:15.212Z,24.4
2018-07-10T05:51:05.554Z,24.4
2018-07-10T05:51:56.169Z,24.4
2018-07-10T05:52:45.383Z,24.4
2018-07-10T05:53:35.728Z,24.4
2018-07-10T05:54:25.595Z,24.4
2018-07-10T05:55:15.574Z,24.4
2018-07-10T05:56:05.610Z,24.4
2018-07-10T05:56:55.676Z,24.4
2018-07-10T05:57:45.720Z,24.4
2018-07-10T05:58:35.978Z,24.4
2018-07-10T05:59:26.153Z,24.4
2018-07-10T06:00:15.963Z,24.4
2018-07-10T06:01:06.006Z,24.4
2018-07-10T06:01:56.343Z,24.4
2018-07-10T06:02:46.390Z,24.4
2018-07-10T06:03:36.451Z,24.3
2018-07-10T06:04:26.616Z,24.3
2018-07-10T06:05:16.609Z,24.3
2018-07-10T06:06:06.377Z,24.3
2018-07-10T06:06:56.721Z,24.3
2018-07-10T06:07:46.759Z,24.3
2018-07-10T06:08:36.281Z,24.3
2018-07-10T06:09:26.352Z,24.3
2018-07-10T06:10:16.683Z,24.3
2018-07-10T06:11:07.061Z,24.3
2018-07-10T06:11:57.125Z,24.3
2018-07-10T06:12:46.877Z,24.3
2018-07-10T06:13:36.386Z,24.3
2018-07-10T06:14:26.477Z,24.3
2018-07-10T06:15:17.404Z,24.3
2018-07-10T06:16:06.964Z,24.3
2018-07-10T06:16:56.954Z,24.3
2018-07-10T06:17:47.583Z,24.3
2018-07-10T06:18:37.347Z,24.3
2018-07-10T06:19:27.402Z,24.3
2018-07-10T06:20:17.778Z,24.3
2018-07-10T06:21:07.038Z,24.3
2018-07-10T06:21:56.615Z,24.3
2018-07-10T06:22:47.670Z,24.3
2018-07-10T06:23:37.737Z,24.3
2018-07-10T06:24:28.107Z,24.3
2018-07-10T06:25:17.883Z,24.3
2018-07-10T06:26:07.897Z,24.3
2018-07-10T06:26:58.272Z,24.3
2018-07-10T06:27:48.037Z,24.3
2018-07-10T06:28:38.227Z,24.3
2018-07-10T06:29:28.498Z,24.3
2018-07-10T06:30:18.875Z,24.3
2018-07-10T06:31:08.283Z,24.3
2018-07-10T06:31:58.659Z,24.3
2018-07-10T06:32:48.675Z,24.3
2018-07-10T06:33:38.738Z,24.3
2018-07-10T06:34:28.028Z,24.3
2018-07-10T06:35:18.301Z,24.3
2018-07-10T06:36:08.646Z,24.3
2018-07-10T06:36:58.729Z,24.3
2018-07-10T06:37:48.521Z,24.3
2018-07-10T06:38:39.126Z,24.3
2018-07-10T06:39:28.919Z,24.3
2018-07-10T06:40:18.962Z,24.3
2018-07-10T06:41:09.393Z,24.3
2018-07-10T06:41:58.795Z,24.3
2018-07-10T06:42:49.426Z,24.3
2018-07-10T06:43:39.477Z,24.3
2018-07-10T06:44:29.553Z,24.3
2018-07-10T06:45:19.049Z,24.3
2018-07-10T06:46:09.677Z,24.3
2018-07-10T06:46:59.490Z,24.3
2018-07-10T06:47:49.519Z,24.3
2018-07-10T06:48:39.566Z,24.3
2018-07-10T06:49:29.740Z,24.3
2018-07-10T06:50:19.749Z,24.3
2018-07-10T06:51:09.857Z,24.3
2018-07-10T06:52:00.166Z,24.3
2018-07-10T06:52:50.904Z,24.3
2018-07-10T06:53:41.171Z,24.3
2018-07-10T06:54:30.103Z,24.3
2018-07-10T06:55:20.386Z,24.3
2018-07-10T06:56:10.178Z,24.3
2018-07-10T06:56:59.681Z,24.3
2018-07-10T06:57:50.301Z,24.3
2018-07-10T06:58:40.396Z,24.3
2018-07-10T06:59:30.426Z,24.3
2018-07-10T07:00:20.764Z,24.3
2018-07-10T07:01:10.577Z,24.3
2018-07-10T07:02:00.946Z,24.3
2018-07-10T07:02:50.961Z,24.3
2018-07-10T07:03:40.703Z,24.3
2018-07-10T07:04:30.839Z,24.3
2018-07-10T07:05:20.923Z,24.3
2018-07-10T07:06:11.217Z,24.3
2018-07-10T07:07:01.253Z,24.3
2018-07-10T07:07:51.641Z,24.3
2018-07-10T07:08:41.074Z,24.3
2018-07-10T07:09:31.447Z,24.3
2018-07-10T07:10:21.489Z,24.3
2018-07-10T07:11:11.607Z,24.2
2018-07-10T07:12:01.346Z,24.3
2018-07-10T07:12:51.678Z,24.2
2018-07-10T07:13:41.557Z,24.3
2018-07-10T07:14:31.800Z,24.3
2018-07-10T07:15:20.830Z,24.3
2018-07-10T07:16:11.943Z,24.2
2018-07-10T07:17:02.019Z,24.3
2018-07-10T07:17:52.110Z,24.3
2018-07-10T07:18:42.138Z,24.3
2018-07-10T07:19:32.213Z,24.3
2018-07-10T07:20:22.225Z,24.3
2018-07-10T07:21:11.993Z,24.3
2018-07-10T07:22:02.119Z,24.3
2018-07-10T07:22:51.695Z,24.3
2018-07-10T07:23:41.737Z,24.3
2018-07-10T07:24:32.083Z,24.3
2018-07-10T07:25:21.683Z,24.3
2018-07-10T07:26:11.652Z,24.3
2018-07-10T07:27:02.288Z,24.2
2018-07-10T07:27:52.548Z,24.3
2018-07-10T07:28:42.899Z,24.3
2018-07-10T07:29:32.956Z,24.3
2018-07-10T07:30:22.771Z,24.3
2018-07-10T07:31:13.096Z,24.3
2018-07-10T07:32:03.204Z,24.2
2018-07-10T07:32:53.241Z,24.3
2018-07-10T07:33:43.281Z,24.2
2018-07-10T07:34:33.368Z,24.3
2018-07-10T07:35:23.420Z,24.2
2018-07-10T07:36:13.217Z,24.3
2018-07-10T07:37:02.989Z,24.3
2018-07-10T07:37:53.317Z,24.3
2018-07-10T07:38:43.399Z,24.2
2018-07-10T07:39:33.728Z,24.3
2018-07-10T07:40:23.597Z,24.3
2018-07-10T07:41:13.862Z,24.3
2018-07-10T07:42:03.955Z,24.3
2018-07-10T07:42:53.969Z,24.3
2018-07-10T07:43:44.545Z,24.3
2018-07-10T07:44:34.082Z,24.3
2018-07-10T07:45:24.285Z,24.3
2018-07-10T07:46:14.214Z,24.3
2018-07-10T07:47:04.259Z,24.2
2018-07-10T07:47:54.062Z,24.3
2018-07-10T07:48:44.140Z,24.3
2018-07-10T07:49:34.203Z,24.3
2018-07-10T07:50:23.091Z,24.3
2018-07-10T07:51:14.285Z,24.3
2018-07-10T07:52:04.684Z,24.3
2018-07-10T07:52:54.181Z,24.3
2018-07-10T07:53:44.477Z,24.3
2018-07-10T07:54:34.828Z,24.3
2018-07-10T07:55:24.907Z,24.2
2018-07-10T07:56:14.703Z,24.3
2018-07-10T07:57:04.751Z,24.2
2018-07-10T07:57:54.497Z,24.3
2018-07-10T07:58:45.175Z,24.3
2018-07-10T07:59:35.231Z,24.3
2018-07-10T08:00:24.862Z,24.3
2018-07-10T08:01:15.327Z,24.2
2018-07-10T08:02:05.428Z,24.3
2018-07-10T08:02:55.233Z,24.3
2018-07-10T08:03:45.292Z,24.3
2018-07-10T08:04:35.335Z,24.3
2018-07-10T08:05:25.783Z,24.2
2018-07-10T08:06:15.503Z,24.2
2018-07-10T08:07:05.840Z,24.2
2018-07-10T08:07:55.098Z,24.2
2018-07-10T08:08:46.019Z,24.2
2018-07-10T08:09:35.728Z,24.2
2018-07-10T08:10:25.808Z,24.3
2018-07-10T08:11:16.137Z,24.2
2018-07-10T08:12:05.908Z,24.2
2018-07-10T08:12:55.712Z,24.2
2018-07-10T08:13:45.193Z,24.3
2018-07-10T08:14:36.375Z,24.3
2018-07-10T08:15:26.195Z,24.3
2018-07-10T08:16:16.518Z,24.3
2018-07-10T08:17:06.265Z,24.2
2018-07-10T08:17:56.353Z,24.3
2018-07-10T08:18:46.399Z,24.2
2018-07-10T08:19:36.195Z,24.2
2018-07-10T08:20:26.545Z,24.2
2018-07-10T08:21:16.928Z,24.2
2018-07-10T08:22:06.685Z,24.2
2018-07-10T08:22:57.002Z,24.2
2018-07-10T08:23:46.850Z,24.2
2018-07-10T08:24:37.416Z,24.2
2018-07-10T08:25:26.937Z,24.2
2018-07-10T08:26:17.267Z,24.2
2018-07-10T08:27:06.862Z,24.2
2018-07-10T08:27:57.117Z,24.2
2018-07-10T08:28:47.444Z,24.2
2018-07-10T08:29:37.212Z,24.2
2018-07-10T08:30:27.312Z,24.3
2018-07-10T08:31:17.666Z,24.3
2018-07-10T08:32:07.724Z,24.2
2018-07-10T08:32:57.209Z,24.2
2018-07-10T08:33:48.270Z,24.2
2018-07-10T08:34:37.999Z,29.4
2018-07-10T08:35:27.106Z,49.8
2018-07-10T08:36:18.019Z,57.6
2018-07-10T08:37:08.067Z,57.1
2018-07-10T08:37:58.171Z,52.4
2018-07-10T08:38:48.254Z,49.8
2018-07-10T08:39:38.300Z,48.6
2018-07-10T08:40:28.318Z,47.6
2018-07-10T08:41:18.123Z,46.9
2018-07-10T08:42:08.166Z,46.3
2018-07-10T08:42:58.493Z,45.8
2018-07-10T08:43:48.621Z,45.2
2018-07-10T08:44:38.346Z,44.8
2018-07-10T08:45:28.709Z,44.3
2018-07-10T08:46:18.482Z,43.8
2018-07-10T08:47:08.846Z,43.4
2018-07-10T08:47:58.328Z,42.9
2018-07-10T08:48:48.697Z,42.7
2018-07-10T08:49:38.739Z,41.4
2018-07-10T08:50:29.078Z,51.3
2018-07-10T08:51:18.901Z,59.9
2018-07-10T08:52:08.961Z,61.4
2018-07-10T08:52:59.300Z,61.5
2018-07-10T08:53:49.052Z,60
2018-07-10T08:55:29.206Z,55.8
2018-07-10T08:56:19.520Z,56.2
2018-07-10T08:57:09.643Z,58.3
2018-07-10T08:57:59.649Z,59.8
2018-07-10T08:58:49.725Z,59.8
2018-07-10T08:59:39.496Z,58.6
2018-07-10T09:00:29.853Z,56.9
2018-07-10T09:01:19.657Z,55.4
2018-07-10T09:02:09.789Z,54.4
2018-07-10T09:03:00.097Z,54.1
2018-07-10T09:03:50.080Z,54.3
2018-07-10T09:04:39.600Z,54.4
2018-07-10T09:05:29.930Z,54.3
2018-07-10T09:06:19.707Z,53.9
2018-07-10T09:07:10.350Z,53.3
2018-07-10T09:08:00.113Z,52.7
2018-07-10T09:08:50.480Z,52.2
2018-07-10T09:10:30.038Z,51.8
2018-07-10T09:11:20.686Z,51.7
2018-07-10T09:12:10.457Z,51.5
2018-07-10T09:13:00.531Z,51.4
2018-07-10T09:13:51.017Z,51.2
2018-07-10T09:14:40.659Z,50.9
2018-07-10T09:15:31.019Z,50.4
2018-07-10T09:16:20.474Z,49.8
2018-07-10T09:17:10.859Z,49.1
2018-07-10T09:18:01.206Z,48.6
2018-07-10T09:18:50.999Z,47.9
2018-07-10T09:19:40.994Z,47.4
2018-07-10T09:20:31.394Z,46.9
2018-07-10T09:21:21.416Z,46.3
2018-07-10T09:22:11.490Z,45.9
2018-07-10T09:23:01.548Z,45.4
2018-07-10T09:23:51.374Z,44.9
2018-07-10T09:24:41.699Z,44.5
2018-07-10T09:25:31.804Z,44.1
2018-07-10T09:26:21.521Z,43.6
2018-07-10T09:27:11.610Z,43.2
2018-07-10T09:28:01.994Z,42.8
2018-07-10T09:28:51.723Z,42.4
2018-07-10T09:29:41.769Z,42.1
2018-07-10T09:30:31.843Z,41.8
2018-07-10T09:31:21.916Z,41.4
2018-07-10T09:32:12.026Z,41
2018-07-10T09:33:02.286Z,42.4
2018-07-10T09:33:53.165Z,45.7
2018-07-10T09:34:42.466Z,53.2
2018-07-10T09:35:31.443Z,56.2
2018-07-10T09:36:22.578Z,56.8
2018-07-10T09:37:12.628Z,55.4
2018-07-10T09:38:02.513Z,52.8
2018-07-10T09:38:52.460Z,50.9
2018-07-10T09:39:42.827Z,50.4
2018-07-10T09:40:32.318Z,51.6
2018-07-10T09:41:22.985Z,53.3
2018-07-10T09:42:12.740Z,55.3
2018-07-10T09:43:03.171Z,56.5
2018-07-10T09:43:53.250Z,56.2
2018-07-10T09:44:43.188Z,55.1
2018-07-10T09:45:33.302Z,54.3
2018-07-10T09:46:23.341Z,53.8
2018-07-10T09:47:13.100Z,53.6
2018-07-10T09:48:03.175Z,54.2
2018-07-10T09:48:53.500Z,55.5
2018-07-10T09:49:43.010Z,56.5
2018-07-10T09:50:33.620Z,56.8
2018-07-10T09:51:22.622Z,56.4
2018-07-10T09:52:13.747Z,56.3
2018-07-10T09:53:03.385Z,56.4
2018-07-10T09:53:53.902Z,57
2018-07-10T09:54:44.486Z,57.4
2018-07-10T09:55:33.987Z,57.2
2018-07-10T09:56:23.799Z,56.8
2018-07-10T09:57:13.844Z,56.4
2018-07-10T09:58:04.187Z,56.3
2018-07-10T09:58:54.293Z,56.3
2018-07-10T09:59:43.765Z,56.4
2018-07-10T10:00:34.387Z,56.6
2018-07-10T10:01:23.712Z,56.4
2018-07-10T10:02:14.489Z,56.1
2018-07-10T10:03:04.559Z,55.8
2018-07-10T10:03:54.613Z,55.6
2018-07-10T10:04:43.854Z,55.9
2018-07-10T10:05:34.477Z,56.6
2018-07-10T10:06:24.836Z,56.9
2018-07-10T10:07:14.871Z,56.8
2018-07-10T10:08:04.391Z,57.3
2018-07-10T10:08:55.015Z,58.4
2018-07-10T10:09:45.091Z,59.4
2018-07-10T10:10:35.340Z,60.1
2018-07-10T10:11:24.924Z,60.1
2018-07-10T10:12:14.966Z,60.3
2018-07-10T10:13:05.046Z,60.5
2018-07-10T10:13:55.116Z,59.8
2018-07-10T10:14:45.162Z,58.6
2018-07-10T10:15:35.248Z,57.6
2018-07-10T10:16:25.600Z,56.9
2018-07-10T10:17:15.363Z,56.3
2018-07-10T10:18:05.443Z,55.9
2018-07-10T10:18:55.480Z,55.6
2018-07-10T10:19:45.908Z,55.1
2018-07-10T10:20:35.883Z,54.5
2018-07-10T10:21:25.725Z,53.9
2018-07-10T10:22:15.563Z,53.3
2018-07-10T10:23:05.318Z,52.8
2018-07-10T10:23:55.633Z,52.5
2018-07-10T10:24:46.238Z,52.2
2018-07-10T10:25:35.536Z,52.1
2018-07-10T10:26:24.638Z,52.3
2018-07-10T10:27:16.137Z,52.9
2018-07-10T10:28:06.467Z,54.1
2018-07-10T10:28:56.250Z,55.1
2018-07-10T10:29:46.320Z,55.4
2018-07-10T10:30:36.382Z,55.3
2018-07-10T10:31:26.737Z,55.3
2018-07-10T10:32:16.825Z,55.3
2018-07-10T10:33:06.849Z,55.9
2018-07-10T10:33:56.342Z,56.5
2018-07-10T10:34:46.409Z,56.9
2018-07-10T10:35:36.958Z,56.9
2018-07-10T10:36:26.842Z,56.6
2018-07-10T10:37:16.725Z,56.3
2018-07-10T10:38:06.974Z,55.9
2018-07-10T10:38:57.304Z,55.6
2018-07-10T10:39:47.357Z,55.3
2018-07-10T10:40:37.487Z,54.8
2018-07-10T10:41:27.435Z,54.4
2018-07-10T10:42:17.289Z,54
2018-07-10T10:43:07.599Z,53.6
2018-07-10T10:43:57.679Z,53.2
2018-07-10T10:44:47.479Z,52.8
2018-07-10T10:47:17.933Z,51.4
2018-07-10T10:48:08.011Z,50.8
2018-07-10T10:48:58.083Z,50.1
2018-07-10T10:49:48.114Z,49.5
2018-07-10T10:50:37.912Z,48.9
2018-07-10T10:51:28.234Z,48.4
2018-07-10T10:52:18.320Z,47.8
2018-07-10T10:53:08.363Z,47.3
2018-07-10T10:53:58.200Z,46.8
2018-07-10T10:54:48.557Z,46.4
2018-07-10T10:55:38.575Z,45.9
2018-07-10T10:56:28.371Z,45.4
2018-07-10T10:57:18.406Z,44.9
2018-07-10T10:58:08.203Z,44.6
2018-07-10T10:58:58.833Z,44.2
2018-07-10T10:59:48.883Z,43.8
2018-07-10T11:00:38.940Z,43.4
2018-07-10T11:01:29.005Z,43
2018-07-10T11:02:19.393Z,42.7
2018-07-10T11:03:09.159Z,42.3
2018-07-10T11:03:59.177Z,41.9
2018-07-10T11:04:48.984Z,41.6
2018-07-10T11:05:39.038Z,41.3
2018-07-10T11:06:29.100Z,40.9
2018-07-10T11:07:19.425Z,40.7
2018-07-10T11:08:09.495Z,40.4
2018-07-10T11:08:59.295Z,40.1
2018-07-10T11:09:49.622Z,39.8